Meteo Giornale » Osservazioni meteo Brasile » Montes Claros
ore: 01:00 - Osservazioni Meteo Montes Claros
Lat. 16° 43' S Lon. 43° 52' W Alt. 646 metri s.l.m.
22 °C
Sereno
Temp. 24 Ore
18 °C
34 °C
Sud/Sud-Ovest
7.4 Km/h
Dew point 11 °C
Umidità 49 %
Visibilità 10 Km
Il sole sorge alle ore 06:01
Il sole tramonta alle ore 17:49
| Data e Ora | Cielo e Fenomeni | T °C | DP °C | Um. % | Pres. hPa | Vis. km | Vento km/h | |
|---|---|---|---|---|---|---|---|---|
| Oggi h: 01:00 | Sereno | 22 | 11 | 49 | 1017 | 10 | S/SO 7.4 | |
| Oggi h: 00:00 | Sereno | 23 | 11 | 46 | 1017 | 10 | N 0 | |
| Ieri h: 23:00 | Sereno | 23 | 10 | 43 | 1017 | 10 | N 0 | |
| Ieri h: 22:00 | Sereno | 25 | 10 | 38 | 1016 | 10 | N 3.7 | |
| Ieri h: 21:00 | Sereno | 25 | 10 | 38 | 1016 | 10 | N 0 | |
| Ieri h: 20:00 | Sereno | 27 | 9 | 32 | 1016 | 10 | E 11.1 | |
| Ieri h: 19:00 | Sereno | 28 | 9 | 30 | 1015 | 10 | E 14.8 | |
| Ieri h: 18:00 | Sereno | 31 | 9 | 25 | 1015 | 10 | E/NE 14.8 | |
| Ieri h: 17:00 | Sereno | 32 | 10 | 25 | 1014 | 10 | E/NE 18.5 | |
| Ieri h: 16:00 | Sereno | 33 | 10 | 24 | 1014 | 10 | E 20.3 | |
| Ieri h: 15:00 | Sereno | 34 | 11 | 24 | 1014 | 10 | E 20.3 | |
| Ieri h: 14:00 | Sereno | 33 | 11 | 26 | 1015 | 10 | E 24 | |
| Ieri h: 13:00 | Sereno | 32 | 12 | 29 | 1016 | 10 | NE 16.7 | |
| Ieri h: 12:00 | Sereno | 31 | 12 | 31 | 1017 | 10 | E 18.5 | |
| Ieri h: 11:00 | Sereno | 29 | 14 | 39 | 1018 | 10 | E/NE 14.8 | |
| Ieri h: 10:00 | Sereno | 27 | 15 | 47 | 1019 | 10 | E/NE 14.8 | |
| Ieri h: 09:00 | Sereno | 25 | 14 | 50 | 1019 | 10 | E/NE 20.3 | |
| Ieri h: 08:00 | Sereno | 23 | 15 | 60 | 1019 | 10 | E/NE 11.1 | |
| Ieri h: 07:00 | Sereno | 21 | 14 | 64 | 1018 | 10 | N 5.5 | |
| Ieri h: 06:00 | Sereno | 18 | 13 | 72 | 1018 | 10 | N 3.7 | |
| Ieri h: 05:00 | Sereno | 19 | 14 | 72 | 1016 | 10 | N 5.5 | |



